Terminal Aerodrome Forecast
Issued by NWS El Paso, TX

Home | Current Version | Previous Version | Text Only | Print | Product List | Glossary On
Versions: 1 2 3 4 5 6 7 8 9 10 11 12 13
216
FTUS44 KEPZ 282336
TAFELP
TAF
KELP 282336Z 2900/2924 10010G17KT P6SM SCT080 SCT140
     FM290300 11008KT P6SM FEW080
     FM290900 05006KT P6SM FEW080
     FM291700 13008KT P6SM SCT080 SCT250=

USA.gov is the U.S. government's official web portal to all federal, state and local government web resources and services.